Time;durP1;ratioP1;P1;durP2;ratioP2;P2;SDS_P1;SDS_P2;PMS_P1;PMS_P2;Temp;Humidity;BMP_temperature;BMP_pressure;BME280_temperature;BME280_humidity;BME280_pressure;Samples;Min_cycle;Max_cycle;Signal;HPM_P1;HPM_P2
2022/10/12 00:02:17;;;;;;;7.22;3.53;;;;;;;;;;4978719;28;20034;-75
2022/10/12 00:04:44;;;;;;;9.98;3.35;;;;;;;;;;4996034;28;20026;-75
2022/10/12 00:07:10;;;;;;;10.52;3.65;;;;;;;;;;4995991;28;20026;-75
2022/10/12 00:09:36;;;;;;;12.15;3.42;;;;;;;;;;4996128;28;20384;-76
2022/10/12 00:12:02;;;;;;;9.32;4.10;;;;;;;;;;4994558;28;20080;-75
2022/10/12 00:14:28;;;;;;;10.88;4.07;;;;;;;;;;4995677;28;20069;-75
2022/10/12 00:16:54;;;;;;;14.00;4.35;;;;;;;;;;4995704;28;20039;-75
2022/10/12 00:19:20;;;;;;;16.08;4.18;;;;;;;;;;4995845;28;20025;-75
2022/10/12 00:21:46;;;;;;;12.65;3.97;;;;;;;;;;5009832;28;20507;-75
2022/10/12 00:24:12;;;;;;;13.43;4.30;;;;;;;;;;5015375;28;20480;-75
2022/10/12 00:26:38;;;;;;;10.85;4.78;;;;;;;;;;5010723;28;20492;-75
2022/10/12 00:29:04;;;;;;;17.65;4.60;;;;;;;;;;4995224;28;20480;-75
2022/10/12 00:31:31;;;;;;;16.08;4.65;;;;;;;;;;4994740;28;20033;-75
2022/10/12 00:33:59;;;;;;;12.52;3.90;;;;;;;;;;4995414;28;20433;-75
2022/10/12 00:36:26;;;;;;;19.10;4.40;;;;;;;;;;4994866;28;20499;-75
2022/10/12 00:38:54;;;;;;;13.70;4.30;;;;;;;;;;4994941;28;20065;-75
2022/10/12 00:41:22;;;;;;;14.55;4.63;;;;;;;;;;4994814;28;20045;-75
2022/10/12 00:43:48;;;;;;;8.40;3.90;;;;;;;;;;4994921;28;20030;-75
2022/10/12 00:46:14;;;;;;;15.30;4.68;;;;;;;;;;5009946;28;20413;-75
2022/10/12 00:48:41;;;;;;;10.30;4.25;;;;;;;;;;4994795;28;20030;-75
2022/10/12 00:51:07;;;;;;;13.27;4.40;;;;;;;;;;4994879;28;20541;-75
2022/10/12 00:53:40;;;;;;;8.77;4.05;;;;;;;;;;4995184;28;20081;-75
2022/10/12 00:56:06;;;;;;;;;;;;;;;;;;4995618;28;20139;-75
2022/10/12 00:58:32;;;;;;;17.55;4.57;;;;;;;;;;4995145;28;20039;-75
2022/10/12 01:01:03;;;;;;;12.57;5.38;;;;;;;;;;4995036;28;20026;-75
2022/10/12 01:03:29;;;;;;;14.50;4.65;;;;;;;;;;4995259;28;20085;-75
2022/10/12 01:05:55;;;;;;;12.65;4.05;;;;;;;;;;4994974;28;20085;-75
2022/10/12 01:08:21;;;;;;;9.48;4.03;;;;;;;;;;4994716;28;20428;-75
2022/10/12 01:10:47;;;;;;;18.17;4.13;;;;;;;;;;5007363;28;20376;-75
2022/10/12 01:13:14;;;;;;;16.25;4.88;;;;;;;;;;5014329;28;20025;-75
2022/10/12 01:15:43;;;;;;;18.75;4.22;;;;;;;;;;5014420;28;20102;-75
2022/10/12 01:18:23;;;;;;;13.48;3.97;;;;;;;;;;5014320;28;20634;-75
2022/10/12 01:21:01;;;;;;;13.35;4.55;;;;;;;;;;5007226;28;20029;-75
2022/10/12 01:23:36;;;;;;;15.38;5.15;;;;;;;;;;4994694;28;20026;-75
2022/10/12 01:26:18;;;;;;;7.72;3.45;;;;;;;;;;4994598;28;20029;-75
2022/10/12 01:29:02;;;;;;;12.45;4.43;;;;;;;;;;4994700;28;20054;-75
2022/10/12 01:31:34;;;;;;;12.48;4.28;;;;;;;;;;4994250;28;20325;-75
2022/10/12 01:34:06;;;;;;;12.02;4.28;;;;;;;;;;4974475;28;20038;-75
2022/10/12 01:36:35;;;;;;;10.18;4.40;;;;;;;;;;4974760;28;20030;-75
2022/10/12 01:39:15;;;;;;;18.58;5.07;;;;;;;;;;4974757;28;20042;-74
2022/10/12 01:41:46;;;;;;;12.15;4.22;;;;;;;;;;4974792;28;20363;-75
2022/10/12 01:44:19;;;;;;;10.27;4.05;;;;;;;;;;4975168;28;20077;-74
2022/10/12 01:46:46;;;;;;;16.45;4.55;;;;;;;;;;4974712;28;20492;-75
2022/10/12 01:49:13;;;;;;;14.18;4.25;;;;;;;;;;4974909;28;20493;-75
2022/10/12 01:51:58;;;;;;;14.18;4.18;;;;;;;;;;4974711;28;20120;-75
2022/10/12 01:54:27;;;;;;;16.42;4.00;;;;;;;;;;4974515;28;20062;-75
2022/10/12 01:56:57;;;;;;;15.35;4.05;;;;;;;;;;4974636;28;20023;-75
2022/10/12 01:59:43;;;;;;;13.85;3.95;;;;;;;;;;4957248;28;20023;-74
2022/10/12 02:02:28;;;;;;;7.10;3.20;;;;;;;;;;4974434;28;20023;-75
2022/10/12 02:05:00;;;;;;;10.98;3.15;;;;;;;;;;4974657;28;20026;-75
2022/10/12 02:07:32;;;;;;;10.88;3.22;;;;;;;;;;4974174;28;20030;-75
2022/10/12 02:09:58;;;;;;;;;;;;;;;;;;4975028;28;20024;-75
2022/10/12 02:12:26;;;;;;;9.48;3.17;;;;;;;;;;4974321;28;19969;-75
2022/10/12 02:14:54;;;;;;;14.63;4.05;;;;;;;;;;4974365;28;20430;-74
2022/10/12 02:17:22;;;;;;;10.80;3.05;;;;;;;;;;4974268;28;20114;-75
2022/10/12 02:19:50;;;;;;;12.25;3.63;;;;;;;;;;4957078;28;20027;-75
2022/10/12 02:22:17;;;;;;;15.23;3.95;;;;;;;;;;4981010;28;20098;-74
2022/10/12 02:24:45;;;;;;;13.93;3.47;;;;;;;;;;4974294;28;20030;-75
2022/10/12 02:27:14;;;;;;;10.07;3.42;;;;;;;;;;4983090;28;20044;-75
2022/10/12 02:29:41;;;;;;;10.48;2.92;;;;;;;;;;4993484;28;20030;-75
2022/10/12 02:32:17;;;;;;;10.88;3.08;;;;;;;;;;4993261;28;20097;-75
2022/10/12 02:34:43;;;;;;;7.32;3.13;;;;;;;;;;4975806;28;20037;-74
2022/10/12 02:37:20;;;;;;;8.13;3.08;;;;;;;;;;4993022;28;20101;-75
2022/10/12 02:39:53;;;;;;;10.80;2.60;;;;;;;;;;4975777;28;20117;-75
2022/10/12 02:42:25;;;;;;;11.73;3.63;;;;;;;;;;4975662;28;20030;-75
2022/10/12 02:44:52;;;;;;;15.63;3.20;;;;;;;;;;4993087;28;20022;-75
2022/10/12 02:47:20;;;;;;;9.20;2.83;;;;;;;;;;4992494;28;20042;-75
2022/10/12 02:49:47;;;;;;;10.10;2.95;;;;;;;;;;4975770;28;20030;-75
2022/10/12 02:52:13;;;;;;;14.57;3.60;;;;;;;;;;4993085;28;20073;-75
2022/10/12 02:54:39;;;;;;;14.30;3.22;;;;;;;;;;4993138;28;20054;-75
2022/10/12 02:57:05;;;;;;;14.68;3.33;;;;;;;;;;4993151;28;20085;-75
2022/10/12 02:59:31;;;;;;;9.13;3.00;;;;;;;;;;4975747;28;20030;-75
2022/10/12 03:01:57;;;;;;;11.82;2.55;;;;;;;;;;4975937;28;20033;-75
2022/10/12 03:04:23;;;;;;;10.40;3.38;;;;;;;;;;4975890;28;20585;-75
2022/10/12 03:06:49;;;;;;;16.02;4.43;;;;;;;;;;4975891;28;20046;-75
2022/10/12 03:09:15;;;;;;;11.77;3.22;;;;;;;;;;4992661;28;20436;-75
2022/10/12 03:11:43;;;;;;;9.35;2.78;;;;;;;;;;4992987;28;20031;-75
2022/10/12 03:14:13;;;;;;;7.28;2.95;;;;;;;;;;4992980;28;20034;-75
2022/10/12 03:16:40;;;;;;;6.97;2.88;;;;;;;;;;4992820;28;20019;-75
2022/10/12 03:19:06;;;;;;;14.38;2.90;;;;;;;;;;4993157;28;20503;-75
2022/10/12 03:21:32;;;;;;;13.68;2.78;;;;;;;;;;4988023;28;20076;-75
2022/10/12 03:23:58;;;;;;;11.90;2.60;;;;;;;;;;4994845;28;20037;-75
2022/10/12 03:26:24;;;;;;;11.13;2.70;;;;;;;;;;4994632;28;20050;-75
2022/10/12 03:28:50;;;;;;;9.93;2.88;;;;;;;;;;5012617;28;20021;-75
2022/10/12 03:31:16;;;;;;;8.52;2.25;;;;;;;;;;5012546;28;20026;-75
2022/10/12 03:33:42;;;;;;;12.25;3.50;;;;;;;;;;5011037;28;20118;-75
2022/10/12 03:36:08;;;;;;;10.55;2.55;;;;;;;;;;5012593;28;20018;-75
2022/10/12 03:38:35;;;;;;;9.43;2.70;;;;;;;;;;4994711;28;20225;-75
2022/10/12 03:41:01;;;;;;;12.40;4.40;;;;;;;;;;5012295;28;20023;-74
2022/10/12 03:43:27;;;;;;;10.02;2.75;;;;;;;;;;5012241;28;20361;-75
2022/10/12 03:45:53;;;;;;;9.30;2.95;;;;;;;;;;5012365;28;20033;-75
2022/10/12 03:48:19;;;;;;;7.85;2.42;;;;;;;;;;5012300;28;20029;-75
2022/10/12 03:50:49;;;;;;;8.90;2.65;;;;;;;;;;4994442;28;20451;-75
2022/10/12 03:53:16;;;;;;;10.50;2.70;;;;;;;;;;5012229;28;20034;-75
2022/10/12 03:55:42;;;;;;;9.18;2.70;;;;;;;;;;5012312;28;20141;-75
2022/10/12 03:58:08;;;;;;;14.25;3.55;;;;;;;;;;5014606;28;20030;-75
2022/10/12 04:00:34;;;;;;;12.57;2.80;;;;;;;;;;5014502;28;20034;-75
2022/10/12 04:03:01;;;;;;;6.70;2.72;;;;;;;;;;5015837;28;20033;-75
2022/10/12 04:05:27;;;;;;;10.77;2.60;;;;;;;;;;5015701;28;20026;-75
2022/10/12 04:07:53;;;;;;;9.00;2.40;;;;;;;;;;4998482;28;20030;-75
2022/10/12 04:10:19;;;;;;;7.07;2.45;;;;;;;;;;5015631;28;20089;-75
2022/10/12 04:12:45;;;;;;;7.47;2.22;;;;;;;;;;4982015;28;20041;-75
2022/10/12 04:15:11;;;;;;;7.35;2.65;;;;;;;;;;5015519;28;20052;-75
2022/10/12 04:17:38;;;;;;;9.40;2.20;;;;;;;;;;5015445;28;20014;-75
2022/10/12 04:20:04;;;;;;;7.80;2.60;;;;;;;;;;4997756;28;20045;-75
2022/10/12 04:22:30;;;;;;;9.82;2.58;;;;;;;;;;5015444;28;20037;-75
2022/10/12 04:24:56;;;;;;;11.63;3.55;;;;;;;;;;5015472;28;20030;-75
2022/10/12 04:27:22;;;;;;;16.50;2.90;;;;;;;;;;5004466;28;20030;-75
2022/10/12 04:29:48;;;;;;;10.95;3.00;;;;;;;;;;4994048;28;20034;-75
2022/10/12 04:32:14;;;;;;;9.38;2.25;;;;;;;;;;4995270;28;20066;-75
2022/10/12 04:34:41;;;;;;;8.98;2.25;;;;;;;;;;4995583;28;20065;-75
2022/10/12 04:37:07;;;;;;;9.05;2.80;;;;;;;;;;4995569;28;20081;-74
2022/10/12 04:39:33;;;;;;;6.65;2.33;;;;;;;;;;4994287;28;20092;-75
2022/10/12 04:41:59;;;;;;;9.73;2.60;;;;;;;;;;4978165;28;20026;-75
2022/10/12 04:44:25;;;;;;;12.52;2.88;;;;;;;;;;4995506;28;20422;-75
2022/10/12 04:46:51;;;;;;;8.95;2.55;;;;;;;;;;4995254;28;20381;-75
2022/10/12 04:49:17;;;;;;;8.85;2.85;;;;;;;;;;4977744;28;20030;-75
2022/10/12 04:51:43;;;;;;;7.70;3.30;;;;;;;;;;4977777;28;20481;-75
2022/10/12 04:54:10;;;;;;;9.02;3.00;;;;;;;;;;4977675;28;20461;-75
2022/10/12 04:56:36;;;;;;;7.43;2.58;;;;;;;;;;4977711;28;20349;-75
2022/10/12 04:59:02;;;;;;;9.15;2.95;;;;;;;;;;4994803;28;20076;-75
2022/10/12 05:01:28;;;;;;;7.63;2.78;;;;;;;;;;4994780;28;20030;-75
2022/10/12 05:03:54;;;;;;;8.50;2.85;;;;;;;;;;4993410;28;20093;-75
2022/10/12 05:06:20;;;;;;;8.27;2.72;;;;;;;;;;4994651;28;20034;-75
2022/10/12 05:08:46;;;;;;;8.48;2.33;;;;;;;;;;4992520;28;20503;-75
2022/10/12 05:11:13;;;;;;;15.25;2.95;;;;;;;;;;5010521;28;20547;-75
2022/10/12 05:13:39;;;;;;;9.63;2.75;;;;;;;;;;5014497;28;20380;-75
2022/10/12 05:16:05;;;;;;;8.48;3.13;;;;;;;;;;4997110;28;20026;-75
2022/10/12 05:18:31;;;;;;;8.23;3.00;;;;;;;;;;5014500;28;20108;-75
2022/10/12 05:20:57;;;;;;;8.88;2.85;;;;;;;;;;4996233;28;20546;-75
2022/10/12 05:23:23;;;;;;;9.60;3.30;;;;;;;;;;4996530;28;20405;-75
2022/10/12 05:25:49;;;;;;;9.90;3.10;;;;;;;;;;5014180;28;20034;-75
2022/10/12 05:28:15;;;;;;;7.13;2.75;;;;;;;;;;5013810;28;20058;-75
2022/10/12 05:30:41;;;;;;;7.18;2.78;;;;;;;;;;5013856;28;20032;-75
2022/10/12 05:33:07;;;;;;;7.35;2.55;;;;;;;;;;5013325;28;20053;-75
2022/10/12 05:35:33;;;;;;;7.63;2.95;;;;;;;;;;5013410;28;20038;-75
2022/10/12 05:37:59;;;;;;;8.13;3.00;;;;;;;;;;5013455;28;20018;-75
2022/10/12 05:40:25;;;;;;;7.35;3.20;;;;;;;;;;4994723;28;20034;-75
2022/10/12 05:42:51;;;;;;;10.80;3.13;;;;;;;;;;4993869;28;20057;-75
2022/10/12 05:45:17;;;;;;;6.75;2.80;;;;;;;;;;4976664;28;20049;-75
2022/10/12 05:47:43;;;;;;;13.30;3.47;;;;;;;;;;4993879;28;20054;-75
2022/10/12 05:50:10;;;;;;;9.27;2.92;;;;;;;;;;4992650;28;20030;-75
2022/10/12 05:52:36;;;;;;;7.75;3.00;;;;;;;;;;4993974;28;20030;-75
2022/10/12 05:55:02;;;;;;;10.40;3.22;;;;;;;;;;4993811;28;20027;-75
2022/10/12 05:57:28;;;;;;;8.63;3.05;;;;;;;;;;4993669;28;20434;-75
2022/10/12 05:59:54;;;;;;;10.05;3.38;;;;;;;;;;4993512;28;20413;-76
2022/10/12 06:02:20;;;;;;;12.68;4.00;;;;;;;;;;4993629;28;20036;-75
2022/10/12 06:04:46;;;;;;;12.30;3.58;;;;;;;;;;4993815;28;20030;-75
2022/10/12 06:07:12;;;;;;;11.60;3.55;;;;;;;;;;4992342;28;20041;-75
2022/10/12 06:09:38;;;;;;;22.40;4.63;;;;;;;;;;4992353;28;20034;-75
2022/10/12 06:12:05;;;;;;;8.82;4.05;;;;;;;;;;4976530;28;20113;-75
2022/10/12 06:14:31;;;;;;;15.60;4.97;;;;;;;;;;4993867;28;20027;-75
2022/10/12 06:16:57;;;;;;;15.60;4.70;;;;;;;;;;4993724;28;20120;-75
2022/10/12 06:19:23;;;;;;;10.73;4.72;;;;;;;;;;4993589;28;20026;-75
2022/10/12 06:21:49;;;;;;;17.23;4.97;;;;;;;;;;4993714;28;20034;-75
2022/10/12 06:24:15;;;;;;;13.30;4.15;;;;;;;;;;4993582;28;20023;-75
2022/10/12 06:26:41;;;;;;;12.70;4.32;;;;;;;;;;4976070;28;20027;-75
2022/10/12 06:29:07;;;;;;;11.27;4.05;;;;;;;;;;4992298;28;20080;-75
2022/10/12 06:31:33;;;;;;;10.80;3.65;;;;;;;;;;4991933;28;20485;-75
2022/10/12 06:33:59;;;;;;;15.30;3.92;;;;;;;;;;4993282;28;20030;-75
2022/10/12 06:36:26;;;;;;;14.93;3.95;;;;;;;;;;4991939;28;20330;-75
2022/10/12 06:38:52;;;;;;;11.98;3.80;;;;;;;;;;4995744;28;20034;-75
2022/10/12 06:41:18;;;;;;;12.38;4.00;;;;;;;;;;5010840;28;20069;-75
2022/10/12 06:43:44;;;;;;;10.35;4.00;;;;;;;;;;5004025;28;20029;-75
2022/10/12 06:46:10;;;;;;;10.40;3.20;;;;;;;;;;5010814;28;20041;-75
2022/10/12 06:48:37;;;;;;;10.75;3.42;;;;;;;;;;4995158;28;20022;-75
2022/10/12 06:51:03;;;;;;;13.32;3.28;;;;;;;;;;5007462;28;20053;-75
2022/10/12 06:53:31;;;;;;;13.23;3.50;;;;;;;;;;5012214;28;20056;-75
2022/10/12 06:55:57;;;;;;;26.25;6.18;;;;;;;;;;5000834;28;20086;-75
2022/10/12 06:58:24;;;;;;;25.77;7.63;;;;;;;;;;4994674;28;20029;-75
2022/10/12 07:00:51;;;;;;;19.92;5.65;;;;;;;;;;5008721;28;20041;-75
2022/10/12 07:03:17;;;;;;;16.38;5.75;;;;;;;;;;5012067;28;20026;-75
2022/10/12 07:05:43;;;;;;;15.38;5.22;;;;;;;;;;5002058;28;20106;-75
2022/10/12 07:08:09;;;;;;;13.60;4.75;;;;;;;;;;5004534;28;20105;-75
2022/10/12 07:10:35;;;;;;;11.15;4.57;;;;;;;;;;5010164;28;20050;-75
2022/10/12 07:13:01;;;;;;;16.33;4.55;;;;;;;;;;5010322;28;20044;-75
2022/10/12 07:15:27;;;;;;;13.32;4.43;;;;;;;;;;4994521;28;20081;-75
2022/10/12 07:17:53;;;;;;;13.60;4.03;;;;;;;;;;5010333;28;20037;-75
2022/10/12 07:20:19;;;;;;;12.20;4.80;;;;;;;;;;5015213;28;20022;-75
2022/10/12 07:22:45;;;;;;;15.05;4.63;;;;;;;;;;5006364;28;20069;-75
2022/10/12 07:25:11;;;;;;;10.98;4.72;;;;;;;;;;5000953;28;20037;-75
2022/10/12 07:27:38;;;;;;;14.68;4.70;;;;;;;;;;5016319;28;20084;-75
2022/10/12 07:30:04;;;;;;;19.70;5.93;;;;;;;;;;5011957;28;20029;-75
2022/10/12 07:32:30;;;;;;;14.95;5.97;;;;;;;;;;5007964;28;20042;-75
2022/10/12 07:34:56;;;;;;;20.63;5.72;;;;;;;;;;4999070;28;20030;-75
2022/10/12 07:37:22;;;;;;;26.08;7.15;;;;;;;;;;5015813;28;20026;-76
2022/10/12 07:39:48;;;;;;;15.52;6.65;;;;;;;;;;4997864;28;20109;-75
2022/10/12 07:42:14;;;;;;;19.10;7.00;;;;;;;;;;5015774;28;20069;-75
2022/10/12 07:44:40;;;;;;;22.63;7.93;;;;;;;;;;5015636;28;20033;-75
2022/10/12 07:47:06;;;;;;;20.17;8.32;;;;;;;;;;4998021;28;20022;-75
2022/10/12 07:49:33;;;;;;;18.15;7.60;;;;;;;;;;5013207;28;20030;-75
2022/10/12 07:51:59;;;;;;;21.40;7.35;;;;;;;;;;5015393;28;20132;-75
2022/10/12 07:54:25;;;;;;;17.13;7.47;;;;;;;;;;4998079;28;20219;-75
2022/10/12 07:56:51;;;;;;;23.50;8.43;;;;;;;;;;4981282;28;20030;-75
2022/10/12 07:59:17;;;;;;;21.77;7.90;;;;;;;;;;5015214;28;20029;-76
2022/10/12 08:01:43;;;;;;;27.63;10.10;;;;;;;;;;5015274;28;20030;-75
2022/10/12 08:04:09;;;;;;;22.67;8.85;;;;;;;;;;4997943;28;20041;-76
2022/10/12 08:06:35;;;;;;;26.95;9.90;;;;;;;;;;5015455;28;20123;-75
2022/10/12 08:09:02;;;;;;;23.75;9.80;;;;;;;;;;5015583;28;20073;-75
2022/10/12 08:11:28;;;;;;;26.67;9.88;;;;;;;;;;5015548;28;20480;-75
2022/10/12 08:13:54;;;;;;;23.48;10.65;;;;;;;;;;5015471;28;20477;-75
2022/10/12 08:16:21;;;;;;;24.25;10.48;;;;;;;;;;5015399;28;20018;-75
2022/10/12 08:18:47;;;;;;;27.40;10.05;;;;;;;;;;5015369;28;20516;-75
2022/10/12 08:21:14;;;;;;;31.90;12.30;;;;;;;;;;5015080;28;20033;-75
2022/10/12 08:23:40;;;;;;;30.77;11.45;;;;;;;;;;5015344;28;20024;-75
2022/10/12 08:26:07;;;;;;;27.55;12.00;;;;;;;;;;5015467;28;20423;-76
2022/10/12 08:28:33;;;;;;;23.90;11.50;;;;;;;;;;5015455;28;20018;-75
2022/10/12 08:30:59;;;;;;;22.70;10.75;;;;;;;;;;5015008;28;20064;-75
2022/10/12 08:33:28;;;;;;;27.27;10.60;;;;;;;;;;4995173;28;20078;-75
2022/10/12 08:35:54;;;;;;;27.00;11.68;;;;;;;;;;4978002;28;20480;-76
2022/10/12 08:38:20;;;;;;;28.08;10.60;;;;;;;;;;5003512;28;20018;-79
2022/10/12 08:41:04;;;;;;;27.48;10.82;;;;;;;;;;5014677;28;20053;-78
2022/10/12 08:43:36;;;;;;;26.95;10.52;;;;;;;;;;4977876;28;20109;-74
2022/10/12 08:46:03;;;;;;;38.88;11.90;;;;;;;;;;5002705;28;20038;-78
2022/10/12 08:48:31;;;;;;;28.55;11.57;;;;;;;;;;5012382;28;20137;-78
2022/10/12 08:51:06;;;;;;;29.15;11.07;;;;;;;;;;5013842;28;20037;-78
2022/10/12 08:53:35;;;;;;;34.45;12.85;;;;;;;;;;5014822;28;20025;-77
2022/10/12 08:56:01;;;;;;;31.23;12.27;;;;;;;;;;4996956;28;20556;-77
2022/10/12 08:58:31;;;;;;;30.83;13.55;;;;;;;;;;5014601;28;20034;-78
2022/10/12 09:01:01;;;;;;;23.60;12.40;;;;;;;;;;4995162;28;20027;-77
2022/10/12 09:03:52;;;;;;;27.38;11.88;;;;;;;;;;4977601;28;20065;-77
2022/10/12 09:06:27;;;;;;;37.42;12.77;;;;;;;;;;4994772;28;20058;-78
2022/10/12 09:09:16;;;;;;;26.17;11.63;;;;;;;;;;4994535;28;20034;-77
2022/10/12 09:11:54;;;;;;;25.83;10.57;;;;;;;;;;4994696;28;20026;-78
2022/10/12 09:14:39;;;;;;;33.20;11.98;;;;;;;;;;4994700;28;20030;-78
2022/10/12 09:17:15;;;;;;;33.28;12.20;;;;;;;;;;4994908;28;20058;-77
2022/10/12 09:19:42;;;;;;;25.95;10.95;;;;;;;;;;4994721;28;20022;-77
2022/10/12 09:22:20;;;;;;;29.35;11.30;;;;;;;;;;5013631;28;20084;-78
2022/10/12 09:24:48;;;;;;;21.05;10.15;;;;;;;;;;4996648;28;20026;-78
2022/10/12 09:27:16;;;;;;;29.73;9.65;;;;;;;;;;4996642;28;20025;-78
2022/10/12 09:29:45;;;;;;;25.50;9.73;;;;;;;;;;5014150;28;20018;-78
2022/10/12 09:32:23;;;;;;;24.67;9.23;;;;;;;;;;5013941;28;20057;-78
2022/10/12 09:34:49;;;;;;;20.98;8.85;;;;;;;;;;5014069;28;20025;-78
2022/10/12 09:37:18;;;;;;;19.55;8.45;;;;;;;;;;5013819;28;20045;-78
2022/10/12 09:39:45;;;;;;;27.40;9.48;;;;;;;;;;5013867;28;20033;-78
2022/10/12 09:42:11;;;;;;;20.70;9.07;;;;;;;;;;5013830;28;20038;-78
2022/10/12 09:44:39;;;;;;;24.33;9.85;;;;;;;;;;5013920;28;20026;-78
2022/10/12 09:47:27;;;;;;;34.33;9.57;;;;;;;;;;4995719;28;20026;-78
2022/10/12 09:49:58;;;;;;;20.50;9.50;;;;;;;;;;5012616;28;20018;-78
2022/10/12 09:52:41;;;;;;;24.05;9.13;;;;;;;;;;5013317;28;20026;-78
2022/10/12 09:55:13;;;;;;;21.27;8.10;;;;;;;;;;5013467;28;20018;-78
2022/10/12 09:57:40;;;;;;;29.15;8.00;;;;;;;;;;4995934;28;20423;-78
2022/10/12 10:00:22;;;;;;;19.88;7.63;;;;;;;;;;5000371;28;20069;-78
2022/10/12 10:02:49;;;;;;;19.88;7.88;;;;;;;;;;4994483;28;20018;-78
2022/10/12 10:05:29;;;;;;;19.08;7.82;;;;;;;;;;4994203;28;20030;-78
2022/10/12 10:08:13;;;;;;;15.43;6.90;;;;;;;;;;4993103;28;20092;-78
2022/10/12 10:10:48;;;;;;;20.42;7.22;;;;;;;;;;4993033;28;20041;-78
2022/10/12 10:13:15;;;;;;;20.27;6.88;;;;;;;;;;4994099;28;20037;-78
2022/10/12 10:15:42;;;;;;;24.90;7.63;;;;;;;;;;4994125;28;20053;-78
2022/10/12 10:18:27;;;;;;;32.00;7.85;;;;;;;;;;4993890;28;20026;-78
2022/10/12 10:20:58;;;;;;;21.45;6.57;;;;;;;;;;4994333;28;20473;-78
2022/10/12 10:23:28;;;;;;;22.30;5.70;;;;;;;;;;4994132;28;20041;-78
2022/10/12 10:25:58;;;;;;;15.40;5.80;;;;;;;;;;4993721;28;20023;-78
2022/10/12 10:28:28;;;;;;;15.77;5.20;;;;;;;;;;4976024;28;20026;-78
2022/10/12 10:31:01;;;;;;;20.35;5.55;;;;;;;;;;4975944;28;20465;-78
2022/10/12 10:33:27;;;;;;;17.48;5.05;;;;;;;;;;4993421;28;20038;-78
2022/10/12 10:35:57;;;;;;;17.63;5.35;;;;;;;;;;4976149;28;20443;-78
2022/10/12 10:38:23;;;;;;;15.73;5.15;;;;;;;;;;4993540;28;20480;-78
2022/10/12 10:40:54;;;;;;;16.42;4.70;;;;;;;;;;4975909;28;20026;-78
2022/10/12 10:43:28;;;;;;;14.52;4.72;;;;;;;;;;4993598;28;20027;-78
2022/10/12 10:45:56;;;;;;;13.13;4.75;;;;;;;;;;4993167;28;20105;-78
2022/10/12 10:48:24;;;;;;;18.10;5.00;;;;;;;;;;4993489;28;20429;-78
2022/10/12 10:50:52;;;;;;;12.43;4.50;;;;;;;;;;4993466;28;20035;-78
2022/10/12 10:53:18;;;;;;;14.32;4.35;;;;;;;;;;4993327;28;20023;-78
2022/10/12 10:55:47;;;;;;;11.90;4.22;;;;;;;;;;4993149;28;20133;-78
2022/10/12 10:58:36;;;;;;;11.82;4.45;;;;;;;;;;4975706;28;20026;-78
2022/10/12 11:01:10;;;;;;;15.00;5.97;;;;;;;;;;4985302;28;20034;-78
2022/10/12 11:03:45;;;;;;;18.52;5.68;;;;;;;;;;4993066;28;20030;-78
2022/10/12 11:06:30;;;;;;;13.65;4.55;;;;;;;;;;4992558;28;20067;-78
2022/10/12 11:09:02;;;;;;;17.38;5.00;;;;;;;;;;4993030;28;20034;-78
2022/10/12 11:11:31;;;;;;;13.88;5.30;;;;;;;;;;5011497;28;20033;-78
2022/10/12 11:14:03;;;;;;;13.15;5.05;;;;;;;;;;5012396;28;20510;-78
2022/10/12 11:16:29;;;;;;;;;;;;;;;;;;5013122;28;20414;-78
2022/10/12 11:18:57;;;;;;;12.82;4.82;;;;;;;;;;5012915;28;19921;-78
2022/10/12 11:21:38;;;;;;;16.98;5.40;;;;;;;;;;5012022;28;20101;-79
2022/10/12 11:24:19;;;;;;;16.15;4.80;;;;;;;;;;5012821;28;20105;-78
2022/10/12 11:26:48;;;;;;;14.50;5.18;;;;;;;;;;5012512;28;20030;-78
2022/10/12 11:29:16;;;;;;;13.18;4.50;;;;;;;;;;5012613;28;20030;-78
2022/10/12 11:31:47;;;;;;;13.32;4.70;;;;;;;;;;4995027;28;20429;-79
2022/10/12 11:34:16;;;;;;;14.90;5.10;;;;;;;;;;5012316;28;20049;-78
2022/10/12 11:36:45;;;;;;;15.57;5.35;;;;;;;;;;5012665;28;20025;-78
2022/10/12 11:39:16;;;;;;;15.85;3.78;;;;;;;;;;5012513;28;20033;-78
2022/10/12 11:41:48;;;;;;;16.02;4.07;;;;;;;;;;5012527;28;20034;-79
2022/10/12 11:44:19;;;;;;;10.52;4.32;;;;;;;;;;5012493;28;20026;-79
2022/10/12 11:46:53;;;;;;;18.23;5.20;;;;;;;;;;5012411;28;20033;-78
2022/10/12 11:49:26;;;;;;;12.38;4.40;;;;;;;;;;4995085;28;20030;-79
2022/10/12 11:51:56;;;;;;;15.32;4.93;;;;;;;;;;5012378;28;20072;-79
2022/10/12 11:54:31;;;;;;;13.70;3.92;;;;;;;;;;5012311;28;20036;-79
2022/10/12 11:57:00;;;;;;;17.35;4.53;;;;;;;;;;5012305;28;20026;-79
2022/10/12 11:59:47;;;;;;;16.23;3.90;;;;;;;;;;5004428;28;20026;-79
2022/10/12 12:02:16;;;;;;;11.05;4.15;;;;;;;;;;4992753;28;20469;-79
2022/10/12 12:04:44;;;;;;;12.82;3.97;;;;;;;;;;4992819;28;20377;-79
2022/10/12 12:07:22;;;;;;;19.20;5.53;;;;;;;;;;4992590;28;20034;-79
2022/10/12 12:09:48;;;;;;;14.15;3.70;;;;;;;;;;4993020;28;20034;-79
2022/10/12 12:12:17;;;;;;;15.50;3.80;;;;;;;;;;4992492;28;20385;-79
2022/10/12 12:14:44;;;;;;;9.40;3.72;;;;;;;;;;4992711;28;20022;-79
2022/10/12 12:17:13;;;;;;;11.63;4.15;;;;;;;;;;4992531;28;20042;-79
2022/10/12 12:19:41;;;;;;;12.32;4.38;;;;;;;;;;4978121;28;20092;-79
2022/10/12 12:22:27;;;;;;;11.65;4.20;;;;;;;;;;4996154;28;20026;-79
2022/10/12 12:24:53;;;;;;;15.45;5.00;;;;;;;;;;4996197;28;20023;-79
2022/10/12 12:27:30;;;;;;;10.45;4.32;;;;;;;;;;4995879;28;20073;-79
2022/10/12 12:29:56;;;;;;;16.83;4.85;;;;;;;;;;4994803;28;20380;-79
2022/10/12 12:32:24;;;;;;;18.30;5.47;;;;;;;;;;4994297;28;20065;-79
2022/10/12 12:34:54;;;;;;;12.93;4.90;;;;;;;;;;4995810;28;20030;-79
2022/10/12 12:37:21;;;;;;;14.23;5.53;;;;;;;;;;4995750;28;20029;-79
2022/10/12 12:39:51;;;;;;;17.23;5.43;;;;;;;;;;4994205;28;20031;-79
2022/10/12 12:42:26;;;;;;;15.85;5.05;;;;;;;;;;4995689;28;20036;-79
2022/10/12 12:44:52;;;;;;;18.02;5.32;;;;;;;;;;4994097;28;20026;-79
2022/10/12 12:47:20;;;;;;;16.05;5.18;;;;;;;;;;4995461;28;20031;-79
2022/10/12 12:49:46;;;;;;;13.60;5.00;;;;;;;;;;4995422;28;20023;-79
2022/10/12 12:52:12;;;;;;;12.25;4.95;;;;;;;;;;4995495;28;20025;-79
2022/10/12 12:54:48;;;;;;;15.30;5.63;;;;;;;;;;4995331;28;20350;-79
2022/10/12 12:57:26;;;;;;;15.75;5.18;;;;;;;;;;4995164;28;20484;-79
2022/10/12 13:00:05;;;;;;;20.15;6.30;;;;;;;;;;5005420;28;20117;-79
2022/10/12 13:02:41;;;;;;;16.33;5.45;;;;;;;;;;5014775;28;20029;-79
2022/10/12 13:05:19;;;;;;;15.25;5.88;;;;;;;;;;4996998;28;20049;-79
2022/10/12 13:07:49;;;;;;;16.63;6.35;;;;;;;;;;5014315;28;20030;-78
2022/10/12 13:10:22;;;;;;;14.88;5.65;;;;;;;;;;4997048;28;20033;-79
2022/10/12 13:13:01;;;;;;;18.83;6.82;;;;;;;;;;5014518;28;20440;-79
2022/10/12 13:15:27;;;;;;;15.50;6.22;;;;;;;;;;5013941;28;20014;-79
2022/10/12 13:18:12;;;;;;;23.58;6.65;;;;;;;;;;4996584;28;20022;-79
2022/10/12 13:20:38;;;;;;;19.70;7.05;;;;;;;;;;4988843;28;20026;-79
2022/10/12 13:23:11;;;;;;;21.92;8.35;;;;;;;;;;4994334;28;20448;-79
2022/10/12 13:25:43;;;;;;;17.90;7.72;;;;;;;;;;4994312;28;20026;-79
2022/10/12 13:28:15;;;;;;;18.23;8.48;;;;;;;;;;5013836;28;20037;-79
2022/10/12 13:30:51;;;;;;;20.15;8.80;;;;;;;;;;4995081;28;20030;-79
2022/10/12 13:33:20;;;;;;;21.38;9.45;;;;;;;;;;5013389;28;20053;-79
2022/10/12 13:35:59;;;;;;;25.50;9.65;;;;;;;;;;4996099;28;20034;-79
2022/10/12 13:38:26;;;;;;;20.02;9.70;;;;;;;;;;5013717;28;20030;-79
2022/10/12 13:41:11;;;;;;;22.38;9.88;;;;;;;;;;4996255;28;20505;-79
2022/10/12 13:43:42;;;;;;;22.42;10.20;;;;;;;;;;5014306;28;20030;-79
2022/10/12 13:46:11;;;;;;;23.83;11.07;;;;;;;;;;5014175;28;20038;-79
2022/10/12 13:48:37;;;;;;;28.88;10.25;;;;;;;;;;5013998;28;20040;-79
2022/10/12 13:51:04;;;;;;;26.13;10.93;;;;;;;;;;5014166;28;20120;-79
2022/10/12 13:53:34;;;;;;;22.05;10.93;;;;;;;;;;5014190;28;20461;-79
2022/10/12 13:56:03;;;;;;;20.55;11.32;;;;;;;;;;5014237;28;20022;-79
2022/10/12 13:58:34;;;;;;;29.58;10.88;;;;;;;;;;4996305;28;20427;-79
2022/10/12 14:01:00;;;;;;;21.90;11.90;;;;;;;;;;4994344;28;20033;-79
2022/10/12 14:03:34;;;;;;;22.70;11.55;;;;;;;;;;4994363;28;20062;-79
2022/10/12 14:06:00;;;;;;;21.95;11.55;;;;;;;;;;4994336;28;20050;-79
2022/10/12 14:08:26;;;;;;;27.45;12.63;;;;;;;;;;4960946;28;20041;-79
2022/10/12 14:10:53;;;;;;;25.35;11.65;;;;;;;;;;4976692;28;20026;-79
2022/10/12 14:13:25;;;;;;;25.90;11.98;;;;;;;;;;4994042;28;20469;-79
2022/10/12 14:15:51;;;;;;;30.35;11.70;;;;;;;;;;4993883;28;20108;-79
2022/10/12 14:18:49;;;;;;;31.80;13.02;;;;;;;;;;4993918;28;20026;-79
2022/10/12 14:21:15;;;;;;;21.88;12.15;;;;;;;;;;4988614;28;20037;-79
2022/10/12 14:23:46;;;;;;;25.13;11.32;;;;;;;;;;4995720;28;20030;-79
2022/10/12 14:26:23;;;;;;;29.63;11.32;;;;;;;;;;5013325;28;20109;-79
2022/10/12 14:28:49;;;;;;;29.13;11.40;;;;;;;;;;5013387;28;20025;-79
2022/10/12 14:31:15;;;;;;;24.25;12.05;;;;;;;;;;5013813;28;20033;-78
2022/10/12 14:33:42;;;;;;;24.40;11.93;;;;;;;;;;5013155;28;20046;-79
2022/10/12 14:36:22;;;;;;;23.38;11.05;;;;;;;;;;5012648;28;20037;-79
2022/10/12 14:38:49;;;;;;;21.45;10.15;;;;;;;;;;5012864;28;20080;-79
2022/10/12 14:41:34;;;;;;;24.30;9.30;;;;;;;;;;5012932;28;20060;-77
2022/10/12 14:44:06;;;;;;;22.05;8.00;;;;;;;;;;4993628;28;20030;-79